• Join FlightAware (Why Join?)
  • Login
  • US Flag 
09:00AM EDT


 

Airport Tracker/Info


-or-


 

Live Flight TrackerFlight Track Log ✈ DAL2352 ✈ 01-Jul-2013 ✈ KALB - KATL

Flight Track Log - Related Links

Times and Time Zones

All times are in EDT time to prevent confusion due to time zone crossing. See the DAL2352 flight status page for this flight to view local times or setup timezone preferences in your user account.

Time Position Orientation Groundspeed Altitude Reporting Facility
EDT Latitude Longitude Course Direction KTS MPH feet Rate Location/Type
06:17AM 42.7236 -73.8081 188° South 178 205 1,300  Level Boston Center
06:18AM 42.6400 -73.8231 188° South 272 313 3,800 2,100 Climbing Boston Center
06:19AM 42.6261 -73.9272 260° West 298 343 6,500 2,580 Climbing Boston Center
06:20AM 42.6836 -74.0019 316° Northwest 271 312 9,200 2,160 Climbing Boston Center
06:21AM 42.7492 -74.0714 322° Northwest 274 315 10,900 1,320 Climbing Boston Center
06:22AM 42.8064 -74.1608 311° West 322 371 11,900 1,620 Climbing Boston Center
06:23AM 42.7606 -74.2839 243° Southwest 305 351 14,200 2,100 Climbing Boston Center
06:24AM 42.6628 -74.2725 175° South 262 302 16,200 2,040 Climbing Boston Center
06:25AM 42.5514 -74.2100 158° South 340 391 18,300 1,680 Climbing Boston Center
06:26AM 42.4542 -74.1567 158° South 395 455 19,600 1,800 Climbing Boston Center
06:27AM 42.3467 -74.0975 158° South 420 483 22,000 1,800 Climbing Boston Center
06:28AM 42.2389 -74.0442 160° South 420 483 23,300 1,320 Climbing Boston Center
06:29AM 42.1264 -74.0414 179° South 408 470 24,700 1,140 Climbing Boston Center
06:30AM 42.0075 -74.0494 183° South 413 475 25,600 900 Climbing Boston Center
06:31AM 41.8908 -74.0575 183° South 421 484 26,500 900 Climbing Boston Center
06:32AM 41.7636 -74.0600 181° South 426 490 27,400 900 Climbing Boston Center
06:34AM 41.5986 -74.0722 183° South 446 513 28,900 1,080 Climbing New York Center
06:35AM 41.4778 -74.0772 182° South 427 491 30,300 1,200 Climbing New York Center
06:36AM 41.3589 -74.0853 183° South 422 486 31,400 840 Climbing New York Center
06:37AM 41.2497 -74.1158 192° South 422 486 32,000 300 Climbing New York Center
06:38AM 41.1736 -74.2250 227° Southwest 384 442 32,000  Level New York Center
06:39AM 41.0994 -74.3394 229° Southwest 397 457 32,000  Level New York Center
06:40AM 41.0269 -74.4594 231° Southwest 410 472 32,000  Level New York Center
06:41AM 40.9567 -74.5764 232° Southwest 416 479 32,000  Level New York Center
06:42AM 40.8800 -74.6903 228° Southwest 416 479 32,000  Level New York Center
06:44AM 40.7106 -74.8911 222° Southwest 416 479 32,000  Level New York Center
06:45AM 40.6278 -74.9928 223° Southwest 411 473 32,000  Level New York Center
06:46AM 40.5269 -75.0714 211° Southwest 416 479 32,000  Level New York Center
06:47AM 40.4267 -75.1386 207° Southwest 416 479 32,000  Level New York Center
06:48AM 40.3261 -75.2086 208° Southwest 416 479 32,000 -60 Level New York Center
06:49AM 40.2236 -75.2728 206° Southwest 416 479 31,900  Descending New York Center
06:50AM 40.0197 -75.4100 207° Southwest 409 471 32,000  Climbing Washington Center
06:51AM 39.9136 -75.4778 206° Southwest 409 471 32,000  Level Washington Center
06:52AM 39.8114 -75.5483 208° Southwest 414 476 32,000  Level Washington Center
06:53AM 39.7344 -75.6589 228° Southwest 419 482 32,000  Level Washington Center
06:54AM 39.6697 -75.7831 236° Southwest 414 476 32,000  Level Washington Center
06:55AM 39.6047 -75.9094 236° Southwest 422 486 32,000  Level Washington Center
06:56AM 39.5419 -76.0356 237° Southwest 422 486 32,000  Level Washington Center
06:57AM 39.4769 -76.1589 236° Southwest 422 486 32,000  Level Washington Center
06:58AM 39.4178 -76.2847 239° Southwest 422 486 32,000  Level Washington Center
06:59AM 39.3547 -76.3942 233° Southwest 417 480 32,000  Level Washington Center
07:00AM 39.2911 -76.5194 237° Southwest 422 486 32,000  Level Washington Center
07:01AM 39.2297 -76.6419 237° Southwest 422 486 32,000  Level Washington Center
07:02AM 39.1661 -76.7642 236° Southwest 422 486 32,000  Level Washington Center
07:03AM 39.1064 -76.8917 239° Southwest 422 486 32,000  Level Washington Center
07:04AM 39.0861 -77.0436 260° West 416 479 32,000  Level Washington Center
07:05AM 39.0611 -77.1903 258° West 421 484 32,000  Level Washington Center
07:06AM 39.0031 -77.3197 240° Southwest 421 484 32,000  Level Washington Center
07:07AM 38.9428 -77.4467 239° Southwest 416 479 32,000  Level Washington Center
07:08AM 38.8683 -77.5539 228° Southwest 416 479 32,000  Level Washington Center
07:09AM 38.7914 -77.6611 227° Southwest 410 472 32,000  Level Washington Center
07:10AM 38.7206 -77.7789 232° Southwest 417 480 32,000  Level Washington Center
07:11AM 38.6539 -77.8911 233° Southwest 417 480 32,000  Level Washington Center
07:12AM 38.5828 -78.0033 231° Southwest 412 474 32,000  Level Washington Center
07:13AM 38.5136 -78.1178 232° Southwest 412 474 32,000  Level Washington Center
07:14AM 38.4444 -78.2319 232° Southwest 412 474 32,000  Level Washington Center
07:15AM 38.3731 -78.3461 231° Southwest 412 474 32,000  Level Washington Center
07:16AM 38.3036 -78.4597 232° Southwest 412 474 32,000  Level Washington Center
07:17AM 38.2319 -78.5839 234° Southwest 404 465 32,000  Level Washington Center
07:18AM 38.1603 -78.6972 231° Southwest 409 471 32,000  Level Washington Center
07:19AM 38.0947 -78.8056 232° Southwest 415 478 32,000  Level Washington Center
07:20AM 38.0231 -78.9158 230° Southwest 415 478 32,000  Level Washington Center
07:21AM 37.9508 -79.0311 232° Southwest 420 483 32,000  Level Washington Center
07:22AM 37.8767 -79.1433 230° Southwest 420 483 32,000  Level Washington Center
07:23AM 37.7919 -79.2578 227° Southwest 420 483 32,000  Level Washington Center
07:24AM 37.7178 -79.3617 228° Southwest 415 478 32,000  Level Washington Center
07:25AM 37.6458 -79.4553 226° Southwest 415 478 32,000  Level Washington Center
07:26AM 37.5628 -79.5717 228° Southwest 415 478 32,000  Level Washington Center
07:27AM 37.4883 -79.6750 228° Southwest 410 472 32,000  Level Washington Center
07:28AM 37.4097 -79.7806 227° Southwest 410 472 32,000  Level Washington Center
07:29AM 37.3353 -79.8811 227° Southwest 410 472 32,000  Level Washington Center
07:30AM 37.2606 -79.9839 228° Southwest 410 472 32,000  Level Washington Center
07:32AM 37.1253 -80.1681 227° Southwest 421 484 32,000  Level Atlanta Center
07:33AM 37.0553 -80.2625 227° Southwest 415 478 32,000  Level Atlanta Center
07:34AM 36.9792 -80.3675 228° Southwest 415 478 32,000  Level Atlanta Center
07:35AM 36.9011 -80.4722 227° Southwest 410 472 32,000  Level Atlanta Center
07:36AM 36.8147 -80.5878 227° Southwest 405 466 32,000  Level Atlanta Center
07:37AM 36.7403 -80.6894 228° Southwest 410 472 32,000  Level Atlanta Center
07:38AM 36.6597 -80.7911 225° Southwest 402 463 32,000 180 Level Atlanta Center
07:39AM 36.5831 -80.8925 227° Southwest 409 471 32,400 540 Climbing Atlanta Center
07:40AM 36.5044 -80.9989 227° Southwest 409 471 33,100 660 Climbing Atlanta Center
07:41AM 36.4297 -81.0997 227° Southwest 409 471 33,800 420 Climbing Atlanta Center
07:42AM 36.3528 -81.2006 227° Southwest 404 465 34,000 60 Climbing Atlanta Center
07:43AM 36.2758 -81.3011 227° Southwest 404 465 34,000  Level Atlanta Center
07:44AM 36.1989 -81.4039 227° Southwest 404 465 34,000  Level Atlanta Center
07:45AM 36.1319 -81.4911 226° Southwest 404 465 34,000  Level Atlanta Center
07:46AM 36.0567 -81.5911 227° Southwest 404 465 34,000  Level Atlanta Center
07:47AM 35.9772 -81.6883 225° Southwest 404 465 34,000  Level Atlanta Center
07:48AM 35.9000 -81.7906 227° Southwest 409 471 34,000  Level Atlanta Center
07:49AM 35.8225 -81.8900 226° Southwest 404 465 34,000  Level Atlanta Center
07:50AM 35.7428 -81.9869 225° Southwest 404 465 34,000  Level Atlanta Center
07:51AM 35.6672 -82.0781 224° Southwest 404 465 34,000  Level Atlanta Center
07:52AM 35.5914 -82.1642 223° Southwest 382 440 34,000  Level Atlanta Center
07:53AM 35.5194 -82.2475 223° Southwest 377 434 34,000 -540 Level Atlanta Center
07:54AM 35.4436 -82.3333 223° Southwest 371 427 33,000 -540 Descending Atlanta Center
07:55AM 35.3656 -82.4242 224° Southwest 366 421 33,000 -360 Level Atlanta Center
07:56AM 35.2936 -82.5044 222° Southwest 366 421 32,300 -1,200 Descending Atlanta Center
07:57AM 35.2339 -82.5742 224° Southwest 366 421 30,700 -1,800 Descending Atlanta Center
07:58AM 35.1472 -82.6644 220° Southwest 366 421 28,800 -1,680 Descending Atlanta Center
07:59AM 35.0544 -82.7703 223° Southwest 403 464 27,400 -1,140 Descending Atlanta Center
08:00AM 34.9739 -82.8600 222° Southwest 409 471 26,600 -1,020 Descending Atlanta Center
08:01AM 34.9039 -82.9472 226° Southwest 409 471 25,400 -1,200 Descending Atlanta Center
08:02AM 34.8192 -83.0369 221° Southwest 404 465 24,200 -1,200 Descending Atlanta Center
08:03AM 34.7364 -83.1289 222° Southwest 409 471 23,000 -1,080 Descending Atlanta Center
08:04AM 34.6431 -83.2233 220° Southwest 409 471 22,100 -1,020 Descending Atlanta Center
08:05AM 34.5664 -83.3172 225° Southwest 399 459 21,000 -600 Descending Atlanta Center
08:06AM 34.4792 -83.3961 217° Southwest 394 453 21,000  Level Atlanta Center
08:07AM 34.3942 -83.4775 218° Southwest 399 459 21,000 -540 Level Atlanta Center
08:08AM 34.3131 -83.5736 224° Southwest 399 459 20,000 -1,800 Descending Atlanta Center
08:09AM 34.2403 -83.6669 227° Southwest 394 453 17,500 -2,580 Descending Atlanta Center
08:10AM 34.1656 -83.7575 225° Southwest 381 438 14,900 -1,800 Descending Atlanta Center
08:11AM 34.0883 -83.8456 223° Southwest 381 438 14,000 -1,080 Descending Atlanta Center
08:12AM 34.0000 -83.9333 219° Southwest 380 437 12,700 -1,080 Descending Atlanta TRACON
08:13AM 33.9333 -84.0000 220° Southwest 374 430 11,900 -420 Descending Atlanta TRACON
08:14AM 33.8500 -84.0833 220° Southwest 374 430 12,000  Climbing Atlanta TRACON
08:15AM 33.7667 -84.1500 214° Southwest 344 396 11,900 -480 Descending Atlanta TRACON
08:16AM 33.7333 -84.2333 244° Southwest 300 345 11,100 -480 Descending Atlanta TRACON
08:17AM 33.7333 -84.3333 270° West 289 333 11,000 -720 Descending Atlanta TRACON
08:18AM 33.7333 -84.4167 270° West 291 335 9,800 -1,440 Descending Atlanta TRACON
08:19AM 33.7333 -84.5000 270° West 276 318 8,500 -1,500 Descending Atlanta TRACON
08:20AM 33.7333 -84.5833 270° West 267 307 7,000 -1,560 Descending Atlanta TRACON
08:21AM 33.7333 -84.6667 270° West 266 306 5,600 -1,080 Descending Atlanta TRACON
08:22AM 33.7333 -84.7500 270° West 270 311 5,000 -360 Descending Atlanta TRACON
08:23AM 33.7333 -84.8500 270° West 263 303 4,900  Descending Atlanta TRACON
08:24AM 33.7167 -84.9000 248° West 236 272 5,000  Climbing Atlanta TRACON
08:25AM 33.6667 -84.8667 151° Southeast 229 264 5,000  Level Atlanta TRACON
08:26AM 33.6500 -84.8000 107° East 237 273 5,000  Level Atlanta TRACON
08:27AM 33.6500 -84.7333 90° East 205 236 5,000 -180 Level Atlanta TRACON
08:28AM 33.6500 -84.6667 90° East 201 231 4,700 -360 Descending Atlanta TRACON